sensor_id;sensor_type;location;lat;lon;timestamp;temperature;humidity
23475;DHT22;11910;52.086;21.066;2023-07-24T00:01:08;19.50;99.90
23475;DHT22;11910;52.086;21.066;2023-07-24T00:03:34;19.50;99.90
23475;DHT22;11910;52.086;21.066;2023-07-24T00:06:01;19.50;99.90
23475;DHT22;11910;52.086;21.066;2023-07-24T00:08:26;19.50;99.90
23475;DHT22;11910;52.086;21.066;2023-07-24T00:10:52;19.50;99.90
23475;DHT22;11910;52.086;21.066;2023-07-24T00:13:17;19.50;99.90
23475;DHT22;11910;52.086;21.066;2023-07-24T00:15:43;19.50;99.90
23475;DHT22;11910;52.086;21.066;2023-07-24T00:18:09;19.40;99.90
23475;DHT22;11910;52.086;21.066;2023-07-24T00:20:34;19.40;99.90
23475;DHT22;11910;52.086;21.066;2023-07-24T00:23:00;19.40;99.90
23475;DHT22;11910;52.086;21.066;2023-07-24T00:25:25;19.40;99.90
23475;DHT22;11910;52.086;21.066;2023-07-24T00:27:51;19.40;99.90
23475;DHT22;11910;52.086;21.066;2023-07-24T00:30:17;19.40;99.90
23475;DHT22;11910;52.086;21.066;2023-07-24T00:32:42;19.40;99.90
23475;DHT22;11910;52.086;21.066;2023-07-24T00:35:08;19.40;99.90
23475;DHT22;11910;52.086;21.066;2023-07-24T00:37:34;19.40;99.90
23475;DHT22;11910;52.086;21.066;2023-07-24T00:39:59;19.30;99.90
23475;DHT22;11910;52.086;21.066;2023-07-24T00:42:25;19.30;99.90
23475;DHT22;11910;52.086;21.066;2023-07-24T00:44:50;19.30;99.90
23475;DHT22;11910;52.086;21.066;2023-07-24T00:47:17;19.20;99.90
23475;DHT22;11910;52.086;21.066;2023-07-24T00:49:43;19.20;99.90
23475;DHT22;11910;52.086;21.066;2023-07-24T00:52:09;19.20;99.90
23475;DHT22;11910;52.086;21.066;2023-07-24T00:54:35;19.10;99.90
23475;DHT22;11910;52.086;21.066;2023-07-24T00:57:01;19.10;99.90
23475;DHT22;11910;52.086;21.066;2023-07-24T00:59:27;19.10;99.90
23475;DHT22;11910;52.086;21.066;2023-07-24T01:01:53;19.00;99.90
23475;DHT22;11910;52.086;21.066;2023-07-24T01:04:18;19.00;99.90
23475;DHT22;11910;52.086;21.066;2023-07-24T01:06:45;19.00;99.90
23475;DHT22;11910;52.086;21.066;2023-07-24T01:09:10;19.00;99.90
23475;DHT22;11910;52.086;21.066;2023-07-24T01:11:41;19.10;99.90
23475;DHT22;11910;52.086;21.066;2023-07-24T01:14:23;19.20;99.90
23475;DHT22;11910;52.086;21.066;2023-07-24T01:16:50;19.20;99.90
23475;DHT22;11910;52.086;21.066;2023-07-24T01:19:41;19.30;99.90
23475;DHT22;11910;52.086;21.066;2023-07-24T01:25:23;19.40;99.90
23475;DHT22;11910;52.086;21.066;2023-07-24T01:27:48;19.40;99.90
23475;DHT22;11910;52.086;21.066;2023-07-24T01:30:17;19.40;99.90
23475;DHT22;11910;52.086;21.066;2023-07-24T01:32:43;19.40;99.90
23475;DHT22;11910;52.086;21.066;2023-07-24T01:35:09;19.40;99.90
23475;DHT22;11910;52.086;21.066;2023-07-24T01:37:35;19.40;99.90
23475;DHT22;11910;52.086;21.066;2023-07-24T01:40:02;19.40;99.90
23475;DHT22;11910;52.086;21.066;2023-07-24T01:42:29;19.40;99.90
23475;DHT22;11910;52.086;21.066;2023-07-24T01:44:55;19.40;99.90
23475;DHT22;11910;52.086;21.066;2023-07-24T01:47:21;19.50;99.90
23475;DHT22;11910;52.086;21.066;2023-07-24T01:49:47;19.50;99.50
23475;DHT22;11910;52.086;21.066;2023-07-24T01:52:13;19.50;99.70
23475;DHT22;11910;52.086;21.066;2023-07-24T01:54:39;19.60;98.50
23475;DHT22;11910;52.086;21.066;2023-07-24T01:57:05;19.60;97.70
23475;DHT22;11910;52.086;21.066;2023-07-24T01:59:30;19.70;99.90
23475;DHT22;11910;52.086;21.066;2023-07-24T02:01:56;19.70;99.90
23475;DHT22;11910;52.086;21.066;2023-07-24T02:04:22;19.70;99.90
23475;DHT22;11910;52.086;21.066;2023-07-24T02:06:50;19.70;99.90
23475;DHT22;11910;52.086;21.066;2023-07-24T02:09:18;19.60;99.90
23475;DHT22;11910;52.086;21.066;2023-07-24T02:11:44;19.60;99.90
23475;DHT22;11910;52.086;21.066;2023-07-24T02:14:12;19.60;99.90
23475;DHT22;11910;52.086;21.066;2023-07-24T02:16:38;19.60;99.90
23475;DHT22;11910;52.086;21.066;2023-07-24T02:19:03;19.60;99.90
23475;DHT22;11910;52.086;21.066;2023-07-24T02:21:29;19.50;99.90
23475;DHT22;11910;52.086;21.066;2023-07-24T02:23:54;19.50;99.90
23475;DHT22;11910;52.086;21.066;2023-07-24T02:26:20;19.50;99.90
23475;DHT22;11910;52.086;21.066;2023-07-24T02:28:45;19.50;99.90
23475;DHT22;11910;52.086;21.066;2023-07-24T02:31:11;19.50;99.90
23475;DHT22;11910;52.086;21.066;2023-07-24T02:33:37;19.50;99.90
23475;DHT22;11910;52.086;21.066;2023-07-24T02:36:03;19.40;99.90
23475;DHT22;11910;52.086;21.066;2023-07-24T02:38:28;19.40;99.90
23475;DHT22;11910;52.086;21.066;2023-07-24T02:40:54;19.30;99.90
23475;DHT22;11910;52.086;21.066;2023-07-24T02:43:19;19.20;99.90
23475;DHT22;11910;52.086;21.066;2023-07-24T02:45:45;19.20;99.90
23475;DHT22;11910;52.086;21.066;2023-07-24T02:48:10;19.20;99.90
23475;DHT22;11910;52.086;21.066;2023-07-24T02:50:36;19.10;99.90
23475;DHT22;11910;52.086;21.066;2023-07-24T02:53:02;19.00;99.90
23475;DHT22;11910;52.086;21.066;2023-07-24T02:55:27;19.00;99.90
23475;DHT22;11910;52.086;21.066;2023-07-24T02:57:53;18.90;99.90
23475;DHT22;11910;52.086;21.066;2023-07-24T03:00:19;18.90;99.90
23475;DHT22;11910;52.086;21.066;2023-07-24T03:02:44;18.80;99.90
23475;DHT22;11910;52.086;21.066;2023-07-24T03:05:10;18.80;99.90
23475;DHT22;11910;52.086;21.066;2023-07-24T03:07:35;18.70;99.90
23475;DHT22;11910;52.086;21.066;2023-07-24T03:10:02;18.70;99.90
23475;DHT22;11910;52.086;21.066;2023-07-24T03:12:28;18.70;99.90
23475;DHT22;11910;52.086;21.066;2023-07-24T03:14:53;18.70;99.90
23475;DHT22;11910;52.086;21.066;2023-07-24T03:17:19;18.70;99.90
23475;DHT22;11910;52.086;21.066;2023-07-24T03:19:44;18.70;99.90
23475;DHT22;11910;52.086;21.066;2023-07-24T03:22:10;18.70;99.90
23475;DHT22;11910;52.086;21.066;2023-07-24T03:24:35;18.70;99.90
23475;DHT22;11910;52.086;21.066;2023-07-24T03:27:01;18.60;99.90
23475;DHT22;11910;52.086;21.066;2023-07-24T03:29:27;18.60;99.90
23475;DHT22;11910;52.086;21.066;2023-07-24T03:31:53;18.60;99.90
23475;DHT22;11910;52.086;21.066;2023-07-24T03:34:18;18.60;99.90
23475;DHT22;11910;52.086;21.066;2023-07-24T03:36:44;18.60;99.90
23475;DHT22;11910;52.086;21.066;2023-07-24T03:39:10;18.60;99.90
23475;DHT22;11910;52.086;21.066;2023-07-24T03:41:39;18.70;99.90
23475;DHT22;11910;52.086;21.066;2023-07-24T03:44:05;18.70;99.90
23475;DHT22;11910;52.086;21.066;2023-07-24T03:46:32;18.70;99.90
23475;DHT22;11910;52.086;21.066;2023-07-24T03:48:58;18.70;99.90
23475;DHT22;11910;52.086;21.066;2023-07-24T03:51:23;18.70;99.90
23475;DHT22;11910;52.086;21.066;2023-07-24T03:53:49;18.70;99.90
23475;DHT22;11910;52.086;21.066;2023-07-24T03:56:15;18.80;99.90
23475;DHT22;11910;52.086;21.066;2023-07-24T03:58:40;18.80;99.90
23475;DHT22;11910;52.086;21.066;2023-07-24T04:01:06;18.90;99.90
23475;DHT22;11910;52.086;21.066;2023-07-24T04:03:32;18.90;99.90
23475;DHT22;11910;52.086;21.066;2023-07-24T04:05:58;18.90;99.90
23475;DHT22;11910;52.086;21.066;2023-07-24T04:08:24;19.00;99.90
23475;DHT22;11910;52.086;21.066;2023-07-24T04:10:49;19.00;99.90
23475;DHT22;11910;52.086;21.066;2023-07-24T04:13:15;19.00;99.90
23475;DHT22;11910;52.086;21.066;2023-07-24T04:15:41;19.10;99.90
23475;DHT22;11910;52.086;21.066;2023-07-24T04:18:07;19.20;99.90
23475;DHT22;11910;52.086;21.066;2023-07-24T04:20:32;19.20;99.90
23475;DHT22;11910;52.086;21.066;2023-07-24T04:22:58;19.20;99.90
23475;DHT22;11910;52.086;21.066;2023-07-24T04:25:23;19.20;99.90
23475;DHT22;11910;52.086;21.066;2023-07-24T04:27:49;19.30;99.90
23475;DHT22;11910;52.086;21.066;2023-07-24T04:30:14;19.30;99.90
23475;DHT22;11910;52.086;21.066;2023-07-24T04:32:40;19.40;99.90
23475;DHT22;11910;52.086;21.066;2023-07-24T04:35:06;19.40;99.50
23475;DHT22;11910;52.086;21.066;2023-07-24T04:37:32;19.50;99.00
23475;DHT22;11910;52.086;21.066;2023-07-24T04:39:57;19.50;99.90
23475;DHT22;11910;52.086;21.066;2023-07-24T04:42:23;19.60;97.80
23475;DHT22;11910;52.086;21.066;2023-07-24T04:44:49;19.60;98.90
23475;DHT22;11910;52.086;21.066;2023-07-24T04:47:16;19.60;98.90
23475;DHT22;11910;52.086;21.066;2023-07-24T04:49:41;19.70;99.50
23475;DHT22;11910;52.086;21.066;2023-07-24T04:52:07;19.80;99.10
23475;DHT22;11910;52.086;21.066;2023-07-24T04:54:33;19.80;97.90
23475;DHT22;11910;52.086;21.066;2023-07-24T04:56:59;19.80;98.50
23475;DHT22;11910;52.086;21.066;2023-07-24T04:59:25;19.90;98.50
23475;DHT22;11910;52.086;21.066;2023-07-24T05:01:50;20.00;97.30
23475;DHT22;11910;52.086;21.066;2023-07-24T05:04:16;20.10;96.40
23475;DHT22;11910;52.086;21.066;2023-07-24T05:06:41;20.10;96.00
23475;DHT22;11910;52.086;21.066;2023-07-24T05:09:07;20.20;96.20
23475;DHT22;11910;52.086;21.066;2023-07-24T05:11:33;20.30;95.40
23475;DHT22;11910;52.086;21.066;2023-07-24T05:13:58;20.30;94.60
23475;DHT22;11910;52.086;21.066;2023-07-24T05:16:24;20.40;94.90
23475;DHT22;11910;52.086;21.066;2023-07-24T05:18:49;20.50;94.40
23475;DHT22;11910;52.086;21.066;2023-07-24T05:21:15;20.50;93.80
23475;DHT22;11910;52.086;21.066;2023-07-24T05:23:40;20.60;93.70
23475;DHT22;11910;52.086;21.066;2023-07-24T05:26:06;20.60;93.60
23475;DHT22;11910;52.086;21.066;2023-07-24T05:28:32;20.60;93.60
23475;DHT22;11910;52.086;21.066;2023-07-24T05:31:02;20.70;93.20
23475;DHT22;11910;52.086;21.066;2023-07-24T05:33:28;20.80;92.80
23475;DHT22;11910;52.086;21.066;2023-07-24T05:36:01;20.90;93.70
23475;DHT22;11910;52.086;21.066;2023-07-24T05:38:27;20.90;92.80
23475;DHT22;11910;52.086;21.066;2023-07-24T05:41:01;21.00;93.70
23475;DHT22;11910;52.086;21.066;2023-07-24T05:43:27;21.10;92.10
23475;DHT22;11910;52.086;21.066;2023-07-24T05:45:54;21.10;92.10
23475;DHT22;11910;52.086;21.066;2023-07-24T05:48:20;21.10;92.90
23475;DHT22;11910;52.086;21.066;2023-07-24T05:50:46;21.10;93.30
23475;DHT22;11910;52.086;21.066;2023-07-24T05:53:11;21.20;92.20
23475;DHT22;11910;52.086;21.066;2023-07-24T05:55:37;21.30;91.00
23475;DHT22;11910;52.086;21.066;2023-07-24T05:58:03;21.30;90.60
23475;DHT22;11910;52.086;21.066;2023-07-24T06:00:28;21.40;90.00
23475;DHT22;11910;52.086;21.066;2023-07-24T06:02:54;21.50;91.40
23475;DHT22;11910;52.086;21.066;2023-07-24T06:05:20;21.60;88.90
23475;DHT22;11910;52.086;21.066;2023-07-24T06:07:46;21.60;88.80
23475;DHT22;11910;52.086;21.066;2023-07-24T06:10:12;21.70;90.00
23475;DHT22;11910;52.086;21.066;2023-07-24T06:12:38;21.70;88.80
23475;DHT22;11910;52.086;21.066;2023-07-24T06:15:04;21.80;87.70
23475;DHT22;11910;52.086;21.066;2023-07-24T06:17:30;21.80;88.00
23475;DHT22;11910;52.086;21.066;2023-07-24T06:19:56;21.80;88.10
23475;DHT22;11910;52.086;21.066;2023-07-24T06:22:22;21.90;86.20
23475;DHT22;11910;52.086;21.066;2023-07-24T06:24:48;21.90;88.60
23475;DHT22;11910;52.086;21.066;2023-07-24T06:27:14;21.90;85.80
23475;DHT22;11910;52.086;21.066;2023-07-24T06:29:39;21.90;86.80
23475;DHT22;11910;52.086;21.066;2023-07-24T06:32:05;21.90;85.40
23475;DHT22;11910;52.086;21.066;2023-07-24T06:34:31;22.00;85.80
23475;DHT22;11910;52.086;21.066;2023-07-24T06:36:56;22.00;86.50
23475;DHT22;11910;52.086;21.066;2023-07-24T06:39:22;22.10;86.50
23475;DHT22;11910;52.086;21.066;2023-07-24T06:41:48;22.10;84.40
23475;DHT22;11910;52.086;21.066;2023-07-24T06:44:13;22.20;83.80
23475;DHT22;11910;52.086;21.066;2023-07-24T06:46:39;22.30;85.10
23475;DHT22;11910;52.086;21.066;2023-07-24T06:49:05;22.40;82.20
23475;DHT22;11910;52.086;21.066;2023-07-24T06:51:30;22.40;81.20
23475;DHT22;11910;52.086;21.066;2023-07-24T06:53:56;22.50;82.10
23475;DHT22;11910;52.086;21.066;2023-07-24T06:56:21;22.50;80.60
23475;DHT22;11910;52.086;21.066;2023-07-24T06:58:47;22.50;81.60
23475;DHT22;11910;52.086;21.066;2023-07-24T07:01:13;22.60;79.80
23475;DHT22;11910;52.086;21.066;2023-07-24T07:03:38;22.60;79.80
23475;DHT22;11910;52.086;21.066;2023-07-24T07:06:04;22.70;80.30
23475;DHT22;11910;52.086;21.066;2023-07-24T07:08:31;22.80;80.60
23475;DHT22;11910;52.086;21.066;2023-07-24T07:10:58;22.80;80.10
23475;DHT22;11910;52.086;21.066;2023-07-24T07:13:24;22.80;81.30
23475;DHT22;11910;52.086;21.066;2023-07-24T07:15:50;22.90;79.70
23475;DHT22;11910;52.086;21.066;2023-07-24T07:18:15;22.90;80.50
23475;DHT22;11910;52.086;21.066;2023-07-24T07:20:48;22.90;82.50
23475;DHT22;11910;52.086;21.066;2023-07-24T07:23:14;23.00;80.80
23475;DHT22;11910;52.086;21.066;2023-07-24T07:25:40;23.20;78.30
23475;DHT22;11910;52.086;21.066;2023-07-24T07:28:08;23.30;79.60
23475;DHT22;11910;52.086;21.066;2023-07-24T07:30:34;23.40;77.50
23475;DHT22;11910;52.086;21.066;2023-07-24T07:33:00;23.40;76.10
23475;DHT22;11910;52.086;21.066;2023-07-24T07:35:26;23.40;76.40
23475;DHT22;11910;52.086;21.066;2023-07-24T07:37:51;23.50;78.60
23475;DHT22;11910;52.086;21.066;2023-07-24T07:40:17;23.60;77.60
23475;DHT22;11910;52.086;21.066;2023-07-24T07:42:42;23.70;76.70
23475;DHT22;11910;52.086;21.066;2023-07-24T07:45:10;23.70;77.20
23475;DHT22;11910;52.086;21.066;2023-07-24T07:47:36;23.80;77.00
23475;DHT22;11910;52.086;21.066;2023-07-24T07:50:01;23.90;77.70
23475;DHT22;11910;52.086;21.066;2023-07-24T07:52:27;24.20;76.40
23475;DHT22;11910;52.086;21.066;2023-07-24T07:54:52;24.30;74.80
23475;DHT22;11910;52.086;21.066;2023-07-24T07:57:18;24.40;74.40
23475;DHT22;11910;52.086;21.066;2023-07-24T07:59:44;24.50;73.70
23475;DHT22;11910;52.086;21.066;2023-07-24T08:02:09;24.50;75.00
23475;DHT22;11910;52.086;21.066;2023-07-24T08:04:35;24.60;74.50
23475;DHT22;11910;52.086;21.066;2023-07-24T08:07:00;24.70;72.60
23475;DHT22;11910;52.086;21.066;2023-07-24T08:09:26;24.70;74.00
23475;DHT22;11910;52.086;21.066;2023-07-24T08:11:52;24.80;74.30
23475;DHT22;11910;52.086;21.066;2023-07-24T08:14:18;24.90;73.30
23475;DHT22;11910;52.086;21.066;2023-07-24T08:16:43;25.10;72.00
23475;DHT22;11910;52.086;21.066;2023-07-24T08:19:09;25.10;70.30
23475;DHT22;11910;52.086;21.066;2023-07-24T08:21:34;25.30;70.80
23475;DHT22;11910;52.086;21.066;2023-07-24T08:24:01;25.40;74.40
23475;DHT22;11910;52.086;21.066;2023-07-24T08:26:27;25.50;72.00
23475;DHT22;11910;52.086;21.066;2023-07-24T08:28:53;25.60;71.30
23475;DHT22;11910;52.086;21.066;2023-07-24T08:31:18;25.60;70.20
23475;DHT22;11910;52.086;21.066;2023-07-24T08:33:44;25.70;70.10
23475;DHT22;11910;52.086;21.066;2023-07-24T08:36:10;25.80;71.10
23475;DHT22;11910;52.086;21.066;2023-07-24T08:38:37;25.80;69.10
23475;DHT22;11910;52.086;21.066;2023-07-24T08:41:13;25.90;68.80
23475;DHT22;11910;52.086;21.066;2023-07-24T08:43:41;26.00;69.00
23475;DHT22;11910;52.086;21.066;2023-07-24T08:46:07;26.10;69.00
23475;DHT22;11910;52.086;21.066;2023-07-24T08:48:38;26.20;68.30
23475;DHT22;11910;52.086;21.066;2023-07-24T08:51:09;26.30;67.50
23475;DHT22;11910;52.086;21.066;2023-07-24T08:53:37;26.30;67.30
23475;DHT22;11910;52.086;21.066;2023-07-24T08:56:07;26.40;67.90
23475;DHT22;11910;52.086;21.066;2023-07-24T08:58:33;26.50;66.30
23475;DHT22;11910;52.086;21.066;2023-07-24T09:01:00;26.60;65.80
23475;DHT22;11910;52.086;21.066;2023-07-24T09:03:26;26.80;65.60
23475;DHT22;11910;52.086;21.066;2023-07-24T09:05:52;26.90;65.90
23475;DHT22;11910;52.086;21.066;2023-07-24T09:08:44;27.00;66.50
23475;DHT22;11910;52.086;21.066;2023-07-24T09:11:13;27.00;65.40
23475;DHT22;11910;52.086;21.066;2023-07-24T09:13:41;27.10;65.40
23475;DHT22;11910;52.086;21.066;2023-07-24T09:16:07;27.20;66.40
23475;DHT22;11910;52.086;21.066;2023-07-24T09:18:42;27.30;64.60
23475;DHT22;11910;52.086;21.066;2023-07-24T09:21:09;27.40;62.90
23475;DHT22;11910;52.086;21.066;2023-07-24T09:26:07;27.80;66.20
23475;DHT22;11910;52.086;21.066;2023-07-24T09:28:33;27.80;63.20
23475;DHT22;11910;52.086;21.066;2023-07-24T09:30:59;27.90;61.60
23475;DHT22;11910;52.086;21.066;2023-07-24T09:33:39;27.80;61.30
23475;DHT22;11910;52.086;21.066;2023-07-24T09:36:06;27.90;62.00
23475;DHT22;11910;52.086;21.066;2023-07-24T09:38:37;27.90;60.00
23475;DHT22;11910;52.086;21.066;2023-07-24T09:41:03;27.80;61.30
23475;DHT22;11910;52.086;21.066;2023-07-24T09:43:29;27.80;61.20
23475;DHT22;11910;52.086;21.066;2023-07-24T09:45:56;27.70;61.20
23475;DHT22;11910;52.086;21.066;2023-07-24T09:48:24;27.60;62.70
23475;DHT22;11910;52.086;21.066;2023-07-24T09:50:59;27.50;62.40
23475;DHT22;11910;52.086;21.066;2023-07-24T09:53:39;27.30;62.00
23475;DHT22;11910;52.086;21.066;2023-07-24T09:56:09;27.20;64.00
23475;DHT22;11910;52.086;21.066;2023-07-24T09:58:37;27.20;62.70
23475;DHT22;11910;52.086;21.066;2023-07-24T10:01:07;27.40;63.60
23475;DHT22;11910;52.086;21.066;2023-07-24T10:03:34;27.60;62.80
23475;DHT22;11910;52.086;21.066;2023-07-24T10:06:01;27.70;63.40
23475;DHT22;11910;52.086;21.066;2023-07-24T10:08:27;27.80;63.40
23475;DHT22;11910;52.086;21.066;2023-07-24T10:10:53;27.70;61.00
23475;DHT22;11910;52.086;21.066;2023-07-24T10:13:20;27.70;63.70
23475;DHT22;11910;52.086;21.066;2023-07-24T10:15:47;27.70;63.10
23475;DHT22;11910;52.086;21.066;2023-07-24T10:18:15;27.60;61.00
23475;DHT22;11910;52.086;21.066;2023-07-24T10:20:44;27.60;61.70
23475;DHT22;11910;52.086;21.066;2023-07-24T10:23:11;28.60;61.10
23475;DHT22;11910;52.086;21.066;2023-07-24T11:30:31;36.10;85.30
23475;DHT22;11910;52.086;21.066;2023-07-24T11:33:00;36.90;46.50
23475;DHT22;11910;52.086;21.066;2023-07-24T11:35:26;36.60;45.60
23475;DHT22;11910;52.086;21.066;2023-07-24T11:37:52;35.10;46.90
23475;DHT22;11910;52.086;21.066;2023-07-24T11:40:18;34.80;46.90
23475;DHT22;11910;52.086;21.066;2023-07-24T11:42:48;35.80;46.80
23475;DHT22;11910;52.086;21.066;2023-07-24T11:45:15;36.50;45.30
23475;DHT22;11910;52.086;21.066;2023-07-24T11:47:50;37.30;44.70
23475;DHT22;11910;52.086;21.066;2023-07-24T12:27:14;31.90;83.40
23475;DHT22;11910;52.086;21.066;2023-07-24T12:29:40;31.60;83.60
23475;DHT22;11910;52.086;21.066;2023-07-24T12:32:06;31.40;84.40
23475;DHT22;11910;52.086;21.066;2023-07-24T12:34:34;31.10;84.70
23475;DHT22;11910;52.086;21.066;2023-07-24T12:36:59;30.90;84.70
23475;DHT22;11910;52.086;21.066;2023-07-24T12:39:25;30.70;85.50
23475;DHT22;11910;52.086;21.066;2023-07-24T12:41:51;30.60;85.10
23475;DHT22;11910;52.086;21.066;2023-07-24T12:44:16;30.60;86.60
23475;DHT22;11910;52.086;21.066;2023-07-24T12:46:42;30.60;85.60
23475;DHT22;11910;52.086;21.066;2023-07-24T12:49:07;30.60;84.90
23475;DHT22;11910;52.086;21.066;2023-07-24T12:51:33;30.60;84.90
23475;DHT22;11910;52.086;21.066;2023-07-24T12:53:58;30.60;85.60
23475;DHT22;11910;52.086;21.066;2023-07-24T12:56:24;30.50;85.80
23475;DHT22;11910;52.086;21.066;2023-07-24T12:58:50;30.40;85.30
23475;DHT22;11910;52.086;21.066;2023-07-24T13:01:15;30.40;85.00
23475;DHT22;11910;52.086;21.066;2023-07-24T13:03:41;30.50;85.50
23475;DHT22;11910;52.086;21.066;2023-07-24T13:06:06;30.40;84.80
23475;DHT22;11910;52.086;21.066;2023-07-24T13:08:32;30.40;85.50
23475;DHT22;11910;52.086;21.066;2023-07-24T13:10:57;30.30;85.80
23475;DHT22;11910;52.086;21.066;2023-07-24T13:13:23;30.30;86.00
23475;DHT22;11910;52.086;21.066;2023-07-24T13:15:49;30.30;87.30
23475;DHT22;11910;52.086;21.066;2023-07-24T13:18:17;30.40;87.60
23475;DHT22;11910;52.086;21.066;2023-07-24T13:20:43;30.40;86.20
23475;DHT22;11910;52.086;21.066;2023-07-24T13:23:09;30.40;87.50
23475;DHT22;11910;52.086;21.066;2023-07-24T13:25:35;30.40;85.90
23475;DHT22;11910;52.086;21.066;2023-07-24T13:28:00;30.50;86.10
23475;DHT22;11910;52.086;21.066;2023-07-24T13:30:26;30.50;85.50
23475;DHT22;11910;52.086;21.066;2023-07-24T13:32:51;30.50;86.90
23475;DHT22;11910;52.086;21.066;2023-07-24T13:35:17;30.40;85.00
23475;DHT22;11910;52.086;21.066;2023-07-24T13:37:42;30.30;84.30
23475;DHT22;11910;52.086;21.066;2023-07-24T13:40:08;30.30;85.70
23475;DHT22;11910;52.086;21.066;2023-07-24T13:42:34;30.10;84.30
23475;DHT22;11910;52.086;21.066;2023-07-24T13:45:00;29.90;84.10
23475;DHT22;11910;52.086;21.066;2023-07-24T13:47:25;29.80;84.80
23475;DHT22;11910;52.086;21.066;2023-07-24T13:49:51;29.80;85.00
23475;DHT22;11910;52.086;21.066;2023-07-24T13:52:17;29.80;85.60
23475;DHT22;11910;52.086;21.066;2023-07-24T13:54:42;29.90;85.10
23475;DHT22;11910;52.086;21.066;2023-07-24T13:57:08;29.90;84.70
23475;DHT22;11910;52.086;21.066;2023-07-24T13:59:34;29.90;83.60
23475;DHT22;11910;52.086;21.066;2023-07-24T14:02:00;29.90;82.60
23475;DHT22;11910;52.086;21.066;2023-07-24T14:04:26;29.70;84.70
23475;DHT22;11910;52.086;21.066;2023-07-24T14:06:51;29.70;84.80
23475;DHT22;11910;52.086;21.066;2023-07-24T14:09:17;29.70;83.70
23475;DHT22;11910;52.086;21.066;2023-07-24T14:11:42;29.60;83.80
23475;DHT22;11910;52.086;21.066;2023-07-24T14:14:08;29.70;83.00
23475;DHT22;11910;52.086;21.066;2023-07-24T14:16:34;29.70;83.30
23475;DHT22;11910;52.086;21.066;2023-07-24T14:18:59;29.80;83.10
23475;DHT22;11910;52.086;21.066;2023-07-24T14:21:25;29.90;83.60
23475;DHT22;11910;52.086;21.066;2023-07-24T14:23:51;30.00;82.50
23475;DHT22;11910;52.086;21.066;2023-07-24T14:26:16;30.20;82.20
23475;DHT22;11910;52.086;21.066;2023-07-24T14:28:42;30.30;81.60
23475;DHT22;11910;52.086;21.066;2023-07-24T14:31:07;30.30;80.90
23475;DHT22;11910;52.086;21.066;2023-07-24T14:33:33;30.40;81.40
23475;DHT22;11910;52.086;21.066;2023-07-24T14:35:58;30.30;79.20
23475;DHT22;11910;52.086;21.066;2023-07-24T14:38:24;30.40;79.80
23475;DHT22;11910;52.086;21.066;2023-07-24T14:40:50;30.40;80.60
23475;DHT22;11910;52.086;21.066;2023-07-24T14:43:15;30.30;79.80
23475;DHT22;11910;52.086;21.066;2023-07-24T14:45:41;30.30;80.50
23475;DHT22;11910;52.086;21.066;2023-07-24T14:48:06;30.20;80.00
23475;DHT22;11910;52.086;21.066;2023-07-24T14:50:35;30.20;79.80
23475;DHT22;11910;52.086;21.066;2023-07-24T14:53:01;30.10;79.50
23475;DHT22;11910;52.086;21.066;2023-07-24T14:55:26;29.90;80.10
23475;DHT22;11910;52.086;21.066;2023-07-24T14:57:52;29.80;80.00
23475;DHT22;11910;52.086;21.066;2023-07-24T15:00:18;29.80;80.20
23475;DHT22;11910;52.086;21.066;2023-07-24T15:02:44;29.70;80.30
23475;DHT22;11910;52.086;21.066;2023-07-24T15:05:09;29.70;81.50
23475;DHT22;11910;52.086;21.066;2023-07-24T15:07:35;29.50;82.00
23475;DHT22;11910;52.086;21.066;2023-07-24T15:10:00;29.50;80.30
23475;DHT22;11910;52.086;21.066;2023-07-24T15:12:26;29.40;80.80
23475;DHT22;11910;52.086;21.066;2023-07-24T15:14:51;29.30;82.50
23475;DHT22;11910;52.086;21.066;2023-07-24T15:17:17;29.20;81.50
23475;DHT22;11910;52.086;21.066;2023-07-24T15:19:43;29.10;81.30
23475;DHT22;11910;52.086;21.066;2023-07-24T15:22:09;29.00;83.70
23475;DHT22;11910;52.086;21.066;2023-07-24T15:24:35;29.00;83.10
23475;DHT22;11910;52.086;21.066;2023-07-24T15:27:00;28.90;82.40
23475;DHT22;11910;52.086;21.066;2023-07-24T15:29:33;28.90;82.70
23475;DHT22;11910;52.086;21.066;2023-07-24T15:31:59;28.90;81.50
23475;DHT22;11910;52.086;21.066;2023-07-24T15:34:24;28.80;80.80
23475;DHT22;11910;52.086;21.066;2023-07-24T15:36:50;28.70;81.90
23475;DHT22;11910;52.086;21.066;2023-07-24T15:39:15;28.70;81.30
23475;DHT22;11910;52.086;21.066;2023-07-24T15:41:41;28.70;82.70
23475;DHT22;11910;52.086;21.066;2023-07-24T15:44:07;28.70;81.50
23475;DHT22;11910;52.086;21.066;2023-07-24T15:46:32;28.80;82.80
23475;DHT22;11910;52.086;21.066;2023-07-24T15:48:58;28.80;81.20
23475;DHT22;11910;52.086;21.066;2023-07-24T15:51:27;28.80;85.00
23475;DHT22;11910;52.086;21.066;2023-07-24T15:53:53;28.80;81.70
23475;DHT22;11910;52.086;21.066;2023-07-24T15:56:19;28.90;81.80
23475;DHT22;11910;52.086;21.066;2023-07-24T15:58:46;29.00;81.40
23475;DHT22;11910;52.086;21.066;2023-07-24T16:01:12;29.10;81.60
23475;DHT22;11910;52.086;21.066;2023-07-24T16:03:38;29.90;81.20
23475;DHT22;11910;52.086;21.066;2023-07-24T16:06:03;29.80;82.20
23475;DHT22;11910;52.086;21.066;2023-07-24T16:08:29;29.40;82.00
23475;DHT22;11910;52.086;21.066;2023-07-24T16:10:54;29.20;81.10
23475;DHT22;11910;52.086;21.066;2023-07-24T16:13:20;29.00;88.70
23475;DHT22;11910;52.086;21.066;2023-07-24T16:15:46;28.80;90.00
23475;DHT22;11910;52.086;21.066;2023-07-24T16:18:11;28.60;90.10
23475;DHT22;11910;52.086;21.066;2023-07-24T16:20:37;28.40;84.50
23475;DHT22;11910;52.086;21.066;2023-07-24T16:23:03;28.20;86.30
23475;DHT22;11910;52.086;21.066;2023-07-24T16:25:28;28.10;84.20
23475;DHT22;11910;52.086;21.066;2023-07-24T16:27:54;28.10;87.50
23475;DHT22;11910;52.086;21.066;2023-07-24T16:30:20;28.00;84.90
23475;DHT22;11910;52.086;21.066;2023-07-24T16:32:46;28.10;85.60
23475;DHT22;11910;52.086;21.066;2023-07-24T16:35:12;28.00;90.50
23475;DHT22;11910;52.086;21.066;2023-07-24T16:37:38;27.90;87.40
23475;DHT22;11910;52.086;21.066;2023-07-24T16:40:04;27.90;85.90
23475;DHT22;11910;52.086;21.066;2023-07-24T16:42:30;27.90;84.60
23475;DHT22;11910;52.086;21.066;2023-07-24T16:44:56;27.80;85.10
23475;DHT22;11910;52.086;21.066;2023-07-24T16:47:21;27.90;88.20
23475;DHT22;11910;52.086;21.066;2023-07-24T16:49:48;27.90;90.60
23475;DHT22;11910;52.086;21.066;2023-07-24T16:52:14;27.90;91.10
23475;DHT22;11910;52.086;21.066;2023-07-24T16:54:39;27.80;90.40
23475;DHT22;11910;52.086;21.066;2023-07-24T16:57:05;27.80;91.60